Time;durP1;ratioP1;P1;durP2;ratioP2;P2;SDS_P1;SDS_P2;PMS_P1;PMS_P2;Temp;Humidity;BMP_temperature;BMP_pressure;BME280_temperature;BME280_humidity;BME280_pressure;Samples;Min_cycle;Max_cycle;Signal;HPM_P1;HPM_P2
2021/10/14 00:00:22;;;;;;;40.63;29.90;;;;;;;1.96;100.00;99349.48;1731773;82;20997;-61
2021/10/14 00:02:48;;;;;;;468.73;173.65;;;;;;;1.91;100.00;99346.60;1719648;82;21137;-61
2021/10/14 00:05:16;;;;;;;129.35;55.63;;;;;;;1.86;100.00;99351.20;1721602;82;21416;-62
2021/10/14 00:07:43;;;;;;;152.10;60.95;;;;;;;1.80;100.00;99355.97;1721729;82;28596;-61
2021/10/14 00:10:10;;;;;;;106.10;45.80;;;;;;;1.76;100.00;99346.79;1721065;82;20991;-61
2021/10/14 00:12:36;;;;;;;141.85;60.40;;;;;;;1.72;100.00;99352.20;1727567;82;21330;-61
2021/10/14 00:15:07;;;;;;;141.40;66.22;;;;;;;1.73;100.00;99351.69;1734700;82;22419;-61
2021/10/14 00:17:33;;;;;;;193.52;75.85;;;;;;;1.72;100.00;99354.84;1722082;82;21021;-61
2021/10/14 00:20:00;;;;;;;109.97;47.62;;;;;;;1.73;100.00;99353.00;1720984;82;21044;-61
2021/10/14 00:22:27;;;;;;;186.82;70.70;;;;;;;1.70;100.00;99344.96;1733388;82;21330;-62
2021/10/14 00:24:53;;;;;;;112.68;48.05;;;;;;;1.71;100.00;99345.26;1736639;82;21467;-61
2021/10/14 00:27:20;;;;;;;113.80;50.23;;;;;;;1.70;100.00;99347.61;1723240;82;21132;-61
2021/10/14 00:29:47;;;;;;;120.87;52.67;;;;;;;1.67;100.00;99343.53;1721458;82;21028;-60
2021/10/14 00:32:15;;;;;;;157.53;65.23;;;;;;;1.68;100.00;99351.77;1721879;82;20887;-61
2021/10/14 00:34:41;;;;;;;120.20;52.67;;;;;;;1.70;100.00;99351.06;1712922;82;21515;-60
2021/10/14 00:37:08;;;;;;;42.15;25.90;;;;;;;1.70;100.00;99349.73;1690602;83;20919;-60
2021/10/14 00:39:36;;;;;;;101.33;50.05;;;;;;;1.68;100.00;99349.64;1689449;83;20883;-60
2021/10/14 00:42:03;;;;;;;48.15;29.07;;;;;;;1.71;100.00;99351.88;1705828;82;20938;-60
2021/10/14 00:44:51;;;;;;;87.97;43.17;;;;;;;1.73;100.00;99351.17;1733339;82;20878;-60
2021/10/14 00:47:21;;;;;;;137.30;63.75;;;;;;;1.75;100.00;99354.44;1724093;82;28632;-60
2021/10/14 00:49:48;;;;;;;186.03;80.12;;;;;;;1.72;100.00;99362.78;1722967;82;20898;-60
2021/10/14 00:52:15;;;;;;;114.32;50.70;;;;;;;1.80;100.00;99361.26;1732496;82;21120;-60
2021/10/14 00:54:42;;;;;;;82.42;38.48;;;;;;;1.85;100.00;99371.25;1723519;82;21358;-60
2021/10/14 00:57:08;;;;;;;137.30;59.10;;;;;;;1.83;100.00;99374.08;1712340;82;20895;-60
2021/10/14 00:59:36;;;;;;;152.45;60.60;;;;;;;1.84;100.00;99377.56;1735180;82;20991;-60
2021/10/14 01:02:02;;;;;;;214.25;78.92;;;;;;;1.83;100.00;99385.19;1722031;82;20915;-60
2021/10/14 01:04:29;;;;;;;140.07;55.35;;;;;;;1.80;100.00;99382.43;1729572;82;21117;-60
2021/10/14 01:06:55;;;;;;;178.25;70.08;;;;;;;1.76;100.00;99383.84;1731021;82;20914;-60
2021/10/14 01:09:22;;;;;;;149.57;56.48;;;;;;;1.73;100.00;99377.63;1719763;82;20965;-60
2021/10/14 01:11:48;;;;;;;175.07;65.15;;;;;;;1.73;100.00;99387.41;1734528;82;20943;-60
2021/10/14 01:14:15;;;;;;;171.60;64.67;;;;;;;1.70;100.00;99391.27;1733711;82;20902;-61
2021/10/14 01:16:44;;;;;;;115.70;47.88;;;;;;;1.68;100.00;99390.65;1725337;82;21089;-61
2021/10/14 01:19:12;;;;;;;118.20;46.73;;;;;;;1.67;100.00;99393.00;1728732;82;20978;-60
2021/10/14 01:21:39;;;;;;;182.05;69.35;;;;;;;1.67;100.00;99386.38;1723053;82;25074;-60
2021/10/14 01:24:06;;;;;;;106.40;44.75;;;;;;;1.63;100.00;99385.14;1722161;82;20932;-60
2021/10/14 01:26:33;;;;;;;205.12;75.97;;;;;;;1.60;100.00;99390.84;1727041;82;20914;-61
2021/10/14 01:29:00;;;;;;;285.22;101.07;;;;;;;1.57;100.00;99385.44;1737136;82;21122;-60
2021/10/14 01:31:27;;;;;;;220.95;78.95;;;;;;;1.55;100.00;99394.08;1715497;82;20981;-61
2021/10/14 01:33:54;;;;;;;227.45;79.45;;;;;;;1.52;100.00;99399.77;1734132;82;21044;-61
2021/10/14 01:36:21;;;;;;;167.05;65.28;;;;;;;1.45;100.00;99399.74;1732645;82;21021;-60
2021/10/14 01:38:48;;;;;;;247.27;86.60;;;;;;;1.42;100.00;99408.08;1725165;82;20898;-60
2021/10/14 01:41:14;;;;;;;346.10;119.60;;;;;;;1.41;100.00;99412.23;1720742;82;21061;-60
2021/10/14 01:43:42;;;;;;;307.12;107.55;;;;;;;1.42;100.00;99414.69;1719000;82;20941;-61
2021/10/14 01:46:08;;;;;;;206.35;72.08;;;;;;;1.45;100.00;99420.09;1719216;82;21013;-60
2021/10/14 01:48:35;;;;;;;185.22;66.92;;;;;;;1.44;100.00;99413.16;1716335;82;20919;-61
2021/10/14 01:51:02;;;;;;;333.05;108.12;;;;;;;1.44;100.00;99417.13;1717284;82;21057;-61
2021/10/14 01:53:28;;;;;;;233.87;81.72;;;;;;;1.44;100.00;99423.22;1733780;82;21187;-60
2021/10/14 01:55:55;;;;;;;152.90;56.00;;;;;;;1.41;100.00;99420.17;1721422;82;20918;-60
2021/10/14 01:58:22;;;;;;;156.57;57.58;;;;;;;1.38;100.00;99427.19;1717552;82;20930;-60
2021/10/14 02:00:50;;;;;;;314.30;107.87;;;;;;;1.37;100.00;99430.83;1715930;82;20959;-60
2021/10/14 02:03:16;;;;;;;165.68;63.90;;;;;;;1.36;100.00;99427.88;1717854;82;20907;-60
2021/10/14 02:05:43;;;;;;;184.00;67.82;;;;;;;1.31;100.00;99432.44;1716032;82;21781;-60
2021/10/14 02:08:11;;;;;;;214.53;77.12;;;;;;;1.31;100.00;99437.72;1719575;82;27163;-60
2021/10/14 02:10:40;;;;;;;99.28;43.48;;;;;;;1.28;100.00;99436.28;1730521;82;20910;-61
2021/10/14 02:13:07;;;;;;;272.05;100.10;;;;;;;1.26;100.00;99436.98;1720928;82;20915;-61
2021/10/14 02:15:34;;;;;;;154.78;61.45;;;;;;;1.27;100.00;99431.19;1719867;82;20902;-61
2021/10/14 02:18:01;;;;;;;197.43;76.87;;;;;;;1.27;100.00;99443.08;1720144;82;21689;-60
2021/10/14 02:20:27;;;;;;;248.07;87.90;;;;;;;1.27;100.00;99429.86;1734116;82;20907;-60
2021/10/14 02:22:54;;;;;;;227.70;84.47;;;;;;;1.28;100.00;99439.44;1731899;82;20973;-60
2021/10/14 02:25:20;;;;;;;230.35;85.38;;;;;;;1.29;100.00;99437.91;1717946;82;21018;-60
2021/10/14 02:27:47;;;;;;;234.07;85.65;;;;;;;1.27;100.00;99433.34;1703389;83;21001;-60
2021/10/14 02:30:14;;;;;;;186.18;70.30;;;;;;;1.25;100.00;99435.84;1701503;83;21116;-60
2021/10/14 02:32:42;;;;;;;175.40;66.85;;;;;;;1.25;100.00;99437.17;1711429;82;21124;-60
2021/10/14 02:35:09;;;;;;;104.70;45.38;;;;;;;1.24;100.00;99442.16;1725175;82;21374;-60
2021/10/14 02:37:35;;;;;;;102.97;43.45;;;;;;;1.22;100.00;99447.63;1736032;82;20910;-60
2021/10/14 02:40:05;;;;;;;128.25;57.10;;;;;;;1.21;100.00;99451.81;1723879;82;21065;-60
2021/10/14 02:42:31;;;;;;;222.73;87.55;;;;;;;1.23;100.00;99445.83;1732741;82;21735;-60
2021/10/14 02:44:58;;;;;;;100.72;44.15;;;;;;;1.32;100.00;99453.08;1714217;82;20993;-60
2021/10/14 02:47:24;;;;;;;131.52;58.92;;;;;;;1.31;100.00;99454.91;1725909;82;20978;-60
2021/10/14 02:49:50;;;;;;;71.70;36.38;;;;;;;1.31;100.00;99452.78;1773565;79;21460;-60
2021/10/14 02:52:17;;;;;;;65.25;32.48;;;;;;;1.28;100.00;99452.67;1767692;80;20928;-60
2021/10/14 02:54:43;;;;;;;108.97;51.10;;;;;;;1.32;100.00;99449.11;1778126;79;22476;-61
2021/10/14 02:57:10;;;;;;;75.35;38.95;;;;;;;1.34;100.00;99457.16;1775025;80;20831;-60
2021/10/14 02:59:36;;;;;;;135.30;59.98;;;;;;;1.42;100.00;99461.46;1775189;80;21499;-60
2021/10/14 03:02:03;;;;;;;88.47;44.00;;;;;;;1.45;100.00;99465.88;1774240;80;21056;-60
2021/10/14 03:04:30;;;;;;;66.50;35.28;;;;;;;1.52;100.00;99473.00;1778572;80;21349;-59
2021/10/14 03:06:56;;;;;;;49.25;28.35;;;;;;;1.60;100.00;99472.86;1775640;80;21162;-60
2021/10/14 03:09:22;;;;;;;84.47;42.33;;;;;;;1.66;100.00;99475.50;1770804;79;21450;-60
2021/10/14 03:11:49;;;;;;;87.72;42.50;;;;;;;1.73;100.00;99483.48;1774696;80;20823;-60
2021/10/14 03:14:17;;;;;;;86.35;44.27;;;;;;;1.80;100.00;99483.52;1770708;80;20997;-60
2021/10/14 03:16:43;;;;;;;83.03;41.77;;;;;;;1.86;100.00;99482.22;1768804;80;20937;-60
2021/10/14 03:19:10;;;;;;;87.75;44.35;;;;;;;1.92;100.00;99485.38;1774004;79;21081;-60
2021/10/14 03:21:37;;;;;;;74.97;38.35;;;;;;;1.99;100.00;99485.92;1780240;80;21329;-60
2021/10/14 03:24:05;;;;;;;57.93;32.13;;;;;;;2.03;100.00;99486.62;1763704;80;20969;-61
2021/10/14 03:26:31;;;;;;;57.40;31.70;;;;;;;2.06;100.00;99484.92;1772679;80;20965;-60
2021/10/14 03:28:58;;;;;;;61.53;33.48;;;;;;;2.11;100.00;99488.30;1780107;80;20910;-60
2021/10/14 03:31:24;;;;;;;145.15;101.55;;;;;;;2.15;100.00;99493.48;1772540;80;21125;-60
2021/10/14 03:33:51;;;;;;;120.62;72.47;;;;;;;2.19;100.00;99496.05;1757920;80;20894;-60
2021/10/14 03:36:18;;;;;;;51.08;32.38;;;;;;;2.22;100.00;99495.63;1759906;80;20862;-60
2021/10/14 03:38:44;;;;;;;91.63;46.35;;;;;;;2.27;100.00;99502.47;1758014;80;20957;-60
2021/10/14 03:41:11;;;;;;;73.72;37.83;;;;;;;2.31;100.00;99504.22;1759344;80;21352;-61
2021/10/14 03:43:37;;;;;;;56.73;31.05;;;;;;;2.32;100.00;99501.87;1757945;79;21117;-61
2021/10/14 03:46:03;;;;;;;56.10;31.05;;;;;;;2.39;100.00;99505.34;1758304;80;21004;-61
2021/10/14 03:48:30;;;;;;;71.92;35.17;;;;;;;2.42;100.00;99504.94;1732765;79;20902;-61
2021/10/14 03:50:58;;;;;;;54.85;33.58;;;;;;;2.46;100.00;99502.72;1723974;82;20931;-61
2021/10/14 03:53:25;;;;;;;44.70;28.00;;;;;;;2.48;100.00;99510.77;1743093;81;21452;-60
2021/10/14 03:55:51;;;;;;;58.05;35.83;;;;;;;2.50;100.00;99507.41;1744993;80;21793;-60
2021/10/14 03:58:18;;;;;;;60.12;34.95;;;;;;;2.52;100.00;99504.54;1743232;82;20867;-60
2021/10/14 04:00:44;;;;;;;52.30;31.40;;;;;;;2.55;100.00;99506.81;1745341;80;20965;-60
2021/10/14 04:03:11;;;;;;;52.10;29.80;;;;;;;2.57;100.00;99512.70;1743618;80;21386;-60
2021/10/14 04:05:38;;;;;;;42.55;26.87;;;;;;;2.60;100.00;99508.34;1745378;82;20922;-61
2021/10/14 04:08:04;;;;;;;38.25;25.17;;;;;;;2.64;100.00;99517.49;1744934;80;21819;-61
2021/10/14 04:10:32;;;;;;;37.95;24.95;;;;;;;2.67;100.00;99514.46;1730226;82;20966;-61
2021/10/14 04:12:59;;;;;;;36.40;24.23;;;;;;;2.72;100.00;99522.62;1723675;82;20902;-60
2021/10/14 04:15:25;;;;;;;37.23;24.18;;;;;;;2.77;100.00;99520.69;1743546;80;20937;-62
2021/10/14 04:17:52;;;;;;;39.18;25.55;;;;;;;2.81;100.00;99525.05;1745435;82;20945;-61
2021/10/14 04:20:19;;;;;;;41.33;25.02;;;;;;;2.85;100.00;99527.09;1742947;82;21128;-61
2021/10/14 04:22:45;;;;;;;42.55;25.08;;;;;;;2.90;100.00;99529.95;1723487;82;20950;-60
2021/10/14 04:25:12;;;;;;;38.35;25.45;;;;;;;2.96;100.00;99537.59;1730444;82;20918;-61
2021/10/14 04:27:39;;;;;;;40.63;26.15;;;;;;;2.99;100.00;99544.64;1744614;80;20878;-61
2021/10/14 04:30:07;;;;;;;43.90;23.87;;;;;;;3.03;100.00;99545.03;1725549;82;20914;-62
2021/10/14 04:32:34;;;;;;;36.45;24.23;;;;;;;3.06;100.00;99541.16;1729130;82;21092;-62
2021/10/14 04:35:03;;;;;;;62.93;27.37;;;;;;;3.12;100.00;99552.28;1731243;81;20916;-61
2021/10/14 04:37:31;;;;;;;60.03;37.85;;;;;;;3.15;100.00;99551.35;1719860;83;20945;-62
2021/10/14 04:39:58;;;;;;;;;;;;;;;3.19;100.00;99549.13;1711523;83;20867;-62
2021/10/14 04:42:24;;;;;;;110.15;63.95;;;;;;;3.23;100.00;99551.64;1707424;83;20143;-62
2021/10/14 04:44:53;;;;;;;327.18;177.55;;;;;;;3.26;100.00;99553.07;1709385;83;21141;-61
2021/10/14 04:47:20;;;;;;;352.32;217.72;;;;;;;3.27;100.00;99565.33;1660523;83;21006;-62
2021/10/14 04:49:47;;;;;;;109.37;59.08;;;;;;;3.29;100.00;99561.45;1699385;82;20938;-62
2021/10/14 04:52:14;;;;;;;87.87;47.33;;;;;;;3.30;100.00;99563.06;1709930;82;20994;-61
2021/10/14 04:54:41;;;;;;;192.80;94.30;;;;;;;3.32;100.00;99572.97;1707956;82;20981;-63
2021/10/14 04:57:08;;;;;;;178.50;84.30;;;;;;;3.34;100.00;99570.12;1708707;82;21027;-62
2021/10/14 04:59:35;;;;;;;97.27;49.58;;;;;;;3.36;100.00;99578.70;1723272;82;20967;-61
2021/10/14 05:02:03;;;;;;;251.58;105.43;;;;;;;3.38;100.00;99578.80;1728524;82;21002;-61
2021/10/14 05:04:29;;;;;;;145.50;64.22;;;;;;;3.38;100.00;99573.97;1722241;82;20934;-62
2021/10/14 05:06:56;;;;;;;97.15;47.55;;;;;;;3.42;100.00;99582.64;1711185;82;20879;-61
2021/10/14 05:09:22;;;;;;;81.63;43.78;;;;;;;3.44;100.00;99581.94;1709841;82;21729;-61
2021/10/14 05:11:49;;;;;;;91.22;45.48;;;;;;;3.46;100.00;99579.09;1704533;82;21437;-61
2021/10/14 05:14:15;;;;;;;87.72;45.67;;;;;;;3.49;100.00;99590.61;1709763;82;20939;-61
2021/10/14 05:16:42;;;;;;;148.15;66.80;;;;;;;3.48;100.00;99598.27;1713666;82;21017;-61
2021/10/14 05:19:09;;;;;;;186.70;80.17;;;;;;;3.48;100.00;99597.44;1711376;82;20896;-61
2021/10/14 05:21:36;;;;;;;231.30;81.53;;;;;;;3.52;100.00;99600.80;1708850;82;21153;-60
2021/10/14 05:24:03;;;;;;;297.82;93.65;;;;;;;3.48;100.00;99599.60;1714401;82;21004;-60
2021/10/14 05:26:32;;;;;;;506.90;169.25;;;;;;;3.54;100.00;99608.05;1715606;82;20965;-61
2021/10/14 05:29:00;;;;;;;310.45;103.10;;;;;;;3.56;100.00;99603.88;1712086;82;20941;-61
2021/10/14 05:31:27;;;;;;;167.85;61.73;;;;;;;3.60;100.00;99610.38;1714894;82;21448;-60
2021/10/14 05:33:54;;;;;;;432.73;135.60;;;;;;;3.61;100.00;99617.34;1709779;82;21141;-61
2021/10/14 05:36:21;;;;;;;222.90;73.75;;;;;;;3.62;100.00;99617.11;1717078;82;20970;-60
2021/10/14 05:38:48;;;;;;;212.23;70.47;;;;;;;3.63;100.00;99623.27;1697517;82;20989;-62
2021/10/14 05:41:14;;;;;;;64.62;31.27;;;;;;;3.63;100.00;99622.75;1708964;82;20974;-61
2021/10/14 05:43:42;;;;;;;87.90;41.73;;;;;;;3.63;100.00;99625.40;1707218;82;20934;-61
2021/10/14 05:46:09;;;;;;;158.20;62.45;;;;;;;3.69;100.00;99626.92;1712640;82;21192;-61
2021/10/14 05:48:36;;;;;;;79.90;38.60;;;;;;;3.67;100.00;99619.15;1712871;82;20965;-61
2021/10/14 05:51:03;;;;;;;108.60;45.35;;;;;;;3.70;100.00;99621.41;1705143;82;20966;-62
2021/10/14 05:53:30;;;;;;;203.22;81.02;;;;;;;3.72;100.00;99622.00;1736114;82;20930;-61
2021/10/14 05:55:58;;;;;;;181.05;75.35;;;;;;;3.75;100.00;99631.39;1712312;82;20839;-61
2021/10/14 05:58:24;;;;;;;112.97;49.93;;;;;;;3.78;100.00;99631.00;1699958;82;21130;-61
2021/10/14 06:00:50;;;;;;;129.03;56.25;;;;;;;3.81;100.00;99633.23;1720310;81;21684;-61
2021/10/14 06:03:17;;;;;;;58.33;30.82;;;;;;;3.87;100.00;99644.33;1707588;82;21025;-62
2021/10/14 06:05:44;;;;;;;101.12;49.53;;;;;;;3.86;100.00;99640.86;1714606;81;20958;-61
2021/10/14 06:08:10;;;;;;;57.08;32.40;;;;;;;3.88;100.00;99651.29;1720340;82;20874;-62
2021/10/14 06:10:37;;;;;;;53.48;31.93;;;;;;;3.91;100.00;99651.39;1720857;81;21133;-62
2021/10/14 06:13:03;;;;;;;61.55;35.60;;;;;;;3.90;100.00;99655.08;1726465;81;20949;-62
2021/10/14 06:15:31;;;;;;;61.70;33.85;;;;;;;3.94;100.00;99654.43;1720375;82;21597;-61
2021/10/14 06:17:58;;;;;;;67.72;33.58;;;;;;;3.96;100.00;99657.70;1722798;81;21130;-62
2021/10/14 06:20:25;;;;;;;75.00;39.38;;;;;;;3.96;100.00;99660.88;1727488;81;21026;-61
2021/10/14 06:22:51;;;;;;;64.07;35.05;;;;;;;3.99;100.00;99666.60;1721154;82;21819;-62
2021/10/14 06:25:18;;;;;;;56.15;30.80;;;;;;;4.02;100.00;99660.05;1723835;82;20965;-61
2021/10/14 06:27:46;;;;;;;59.93;32.20;;;;;;;4.09;100.00;99660.83;1722477;82;20886;-62
2021/10/14 06:30:13;;;;;;;52.73;31.50;;;;;;;4.16;100.00;99675.42;1724100;81;20995;-61
2021/10/14 06:32:39;;;;;;;70.80;39.03;;;;;;;4.20;100.00;99675.33;1721161;82;21590;-61
2021/10/14 06:35:07;;;;;;;95.75;49.90;;;;;;;4.22;100.00;99683.39;1728847;82;21053;-61
2021/10/14 06:37:34;;;;;;;100.95;48.10;;;;;;;4.28;100.00;99687.05;1724431;82;21053;-61
2021/10/14 06:40:00;;;;;;;53.68;30.82;;;;;;;4.34;100.00;99691.53;1720372;82;20933;-61
2021/10/14 06:42:27;;;;;;;65.97;35.00;;;;;;;4.40;100.00;99690.68;1723836;81;21005;-61
2021/10/14 06:44:53;;;;;;;61.00;35.40;;;;;;;4.45;100.00;99686.06;1720520;82;21492;-60
2021/10/14 06:47:20;;;;;;;60.33;33.95;;;;;;;4.47;100.00;99688.00;1737099;82;21080;-61
2021/10/14 06:49:48;;;;;;;47.20;28.55;;;;;;;4.50;100.00;99689.72;1724719;82;21029;-62
2021/10/14 06:52:16;;;;;;;47.03;26.65;;;;;;;4.60;100.00;99696.44;1721650;82;20919;-61
2021/10/14 06:54:43;;;;;;;53.17;33.20;;;;;;;4.71;100.00;99692.61;1720083;82;21026;-60
2021/10/14 06:57:10;;;;;;;43.55;26.50;;;;;;;4.82;100.00;99695.09;1703719;84;20907;-61
2021/10/14 06:59:36;;;;;;;50.65;31.20;;;;;;;4.89;100.00;99702.53;1703873;84;21085;-60
2021/10/14 07:02:04;;;;;;;50.40;27.93;;;;;;;5.07;100.00;99697.00;1703837;84;20930;-61
2021/10/14 07:04:31;;;;;;;49.90;27.20;;;;;;;5.07;100.00;99697.00;1703848;84;20959;-61
2021/10/14 07:06:59;;;;;;;33.15;22.25;;;;;;;5.17;100.00;99709.34;1703921;84;20887;-60
2021/10/14 07:09:27;;;;;;;56.25;32.50;;;;;;;5.31;100.00;99713.53;1704019;84;20903;-61
2021/10/14 07:11:57;;;;;;;44.50;26.23;;;;;;;5.36;100.00;99711.06;1691479;84;21172;-61
2021/10/14 07:14:23;;;;;;;51.45;29.70;;;;;;;5.32;100.00;99705.86;1688505;85;21419;-61
2021/10/14 07:16:50;;;;;;;40.30;24.75;;;;;;;5.36;100.00;99718.21;1688682;83;20942;-61
2021/10/14 07:19:17;;;;;;;43.23;27.77;;;;;;;5.49;100.00;99722.65;1688918;85;20946;-61
2021/10/14 07:21:44;;;;;;;35.37;23.67;;;;;;;5.50;100.00;99726.93;1688832;85;20920;-62
2021/10/14 07:24:11;;;;;;;53.90;31.73;;;;;;;5.47;100.00;99728.70;1688400;85;21124;-61
2021/10/14 07:26:38;;;;;;;37.83;24.15;;;;;;;5.54;100.00;99728.14;1688421;85;21388;-61
2021/10/14 07:29:04;;;;;;;38.53;22.67;;;;;;;5.69;100.00;99734.47;1688466;83;21040;-61
2021/10/14 07:31:32;;;;;;;47.05;27.17;;;;;;;5.84;100.00;99725.63;1692365;82;20947;-61
2021/10/14 07:33:58;;;;;;;42.37;26.93;;;;;;;5.95;100.00;99730.78;1688516;82;20913;-60
2021/10/14 07:36:25;;;;;;;35.58;20.32;;;;;;;5.98;100.00;99727.70;1698611;82;21748;-60
2021/10/14 07:38:51;;;;;;;34.55;21.80;;;;;;;6.07;100.00;99732.22;1676956;84;20999;-60
2021/10/14 07:41:17;;;;;;;32.73;21.17;;;;;;;6.15;100.00;99737.25;1692369;82;20878;-59
2021/10/14 07:43:44;;;;;;;37.78;25.90;;;;;;;6.29;100.00;99733.95;1719853;81;21501;-60
2021/10/14 07:46:10;;;;;;;30.20;20.48;;;;;;;6.40;100.00;99739.89;1705959;82;20970;-58
2021/10/14 07:48:37;;;;;;;35.03;20.20;;;;;;;6.53;100.00;99734.39;1698406;82;22219;-58
2021/10/14 07:51:04;;;;;;;29.42;19.35;;;;;;;6.57;100.00;99745.45;1692012;81;20956;-60
2021/10/14 07:53:31;;;;;;;32.33;20.82;;;;;;;6.53;100.00;99747.73;1708546;82;20878;-59
2021/10/14 07:55:57;;;;;;;34.80;22.67;;;;;;;6.67;100.00;99743.59;1703188;84;21214;-60
2021/10/14 07:58:24;;;;;;;31.25;19.82;;;;;;;6.90;100.00;99746.37;1681039;84;21070;-59
2021/10/14 08:00:50;;;;;;;27.58;17.17;;;;;;;7.26;100.00;99744.14;1674381;84;21087;-59
2021/10/14 08:03:17;;;;;;;30.08;20.43;;;;;;;7.41;100.00;99746.39;1675749;84;20933;-60
2021/10/14 08:05:44;;;;;;;27.77;20.05;;;;;;;7.51;100.00;99738.62;1657584;85;20992;-59
2021/10/14 08:08:12;;;;;;;26.95;19.12;;;;;;;7.62;100.00;99746.39;1652922;85;21203;-59
2021/10/14 08:10:38;;;;;;;21.10;11.95;;;;;;;7.82;100.00;99749.27;1679467;85;20927;-59
2021/10/14 08:13:06;;;;;;;24.45;18.15;;;;;;;8.12;100.00;99743.28;1681186;85;21228;-59
2021/10/14 08:15:32;;;;;;;27.70;18.95;;;;;;;9.13;100.00;99745.66;1681408;85;21011;-59
2021/10/14 08:18:00;;;;;;;29.10;18.10;;;;;;;9.09;100.00;99739.17;1680403;85;21430;-60
2021/10/14 08:20:26;;;;;;;24.12;17.07;;;;;;;8.94;100.00;99744.22;1650330;86;20973;-59
2021/10/14 08:22:54;;;;;;;24.70;17.77;;;;;;;9.13;100.00;99744.31;1659340;86;20995;-60
2021/10/14 08:25:21;;;;;;;57.90;25.85;;;;;;;9.35;100.00;99739.63;1656968;86;21156;-60
2021/10/14 08:27:49;;;;;;;30.88;21.33;;;;;;;9.54;100.00;99747.73;1658320;86;21004;-59
2021/10/14 08:30:15;;;;;;;39.15;26.73;;;;;;;9.38;100.00;99741.31;1659380;86;21023;-59
2021/10/14 08:32:46;;;;;;;34.80;24.00;;;;;;;9.74;100.00;99748.59;1659604;84;21080;-60
2021/10/14 08:35:13;;;;;;;28.52;19.85;;;;;;;10.12;100.00;99746.21;1659349;86;21023;-59
2021/10/14 08:37:40;;;;;;;35.65;22.95;;;;;;;10.06;100.00;99749.36;1637443;86;21224;-60
2021/10/14 08:40:08;;;;;;;42.95;30.00;;;;;;;10.46;100.00;99753.20;1659137;86;20968;-59
2021/10/14 08:42:35;;;;;;;45.30;29.12;;;;;;;10.96;100.00;99750.04;1660640;84;20924;-59
2021/10/14 08:45:05;;;;;;;33.65;22.13;;;;;;;11.24;100.00;99756.23;1679722;83;20955;-59
2021/10/14 08:47:36;;;;;;;26.35;18.75;;;;;;;10.82;100.00;99759.53;1661897;83;20918;-60
2021/10/14 08:50:04;;;;;;;17.07;13.40;;;;;;;11.04;100.00;99758.18;1674430;83;21006;-59
2021/10/14 08:52:30;;;;;;;34.88;21.85;;;;;;;11.47;100.00;99761.86;1689154;85;21419;-59
2021/10/14 08:54:58;;;;;;;20.82;15.60;;;;;;;11.32;99.14;99749.89;1690457;84;20958;-59
2021/10/14 08:57:24;;;;;;;22.90;19.95;;;;;;;11.92;99.79;99757.97;1703300;82;21231;-59
2021/10/14 08:59:51;;;;;;;18.50;13.38;;;;;;;12.19;93.79;99753.31;1726863;83;20959;-59
2021/10/14 09:02:19;;;;;;;46.85;25.40;;;;;;;12.05;91.66;99758.05;1722273;83;21110;-59
2021/10/14 09:04:56;;;;;;;23.02;15.13;;;;;;;11.74;93.87;99756.45;1716973;83;21438;-59
2021/10/14 09:07:23;;;;;;;30.00;18.55;;;;;;;11.51;94.10;99756.23;1716841;83;20920;-60
2021/10/14 09:09:51;;;;;;;53.52;42.15;;;;;;;11.40;94.87;99758.56;1699225;82;20968;-59
2021/10/14 09:12:19;;;;;;;21.12;18.05;;;;;;;11.23;94.23;99766.19;1715359;81;20961;-59
2021/10/14 09:15:03;;;;;;;;;;;;;;;11.23;94.31;99770.21;1706353;82;21114;-60
2021/10/14 09:17:43;;;;;;;43.17;27.73;;;;;;;11.18;94.90;99772.84;1674681;83;20488;-60
2021/10/14 09:20:34;;;;;;;30.35;18.00;;;;;;;11.16;94.61;99770.41;1694944;82;21238;-60
2021/10/14 09:23:17;;;;;;;41.15;24.60;;;;;;;11.25;93.59;99774.00;1703015;82;21401;-59
2021/10/14 09:25:52;;;;;;;19.07;12.88;;;;;;;11.19;92.77;99774.45;1717196;82;21399;-59
2021/10/14 09:28:24;;;;;;;39.73;24.87;;;;;;;11.35;91.19;99768.19;1731056;82;21233;-59
2021/10/14 09:31:06;;;;;;;15.13;11.25;;;;;;;11.67;90.72;99767.95;1677320;85;21004;-60
2021/10/14 09:33:44;;;;;;;34.50;21.70;;;;;;;12.39;88.13;99767.96;1660947;86;20972;-59
2021/10/14 09:36:20;;;;;;;35.83;23.10;;;;;;;12.48;83.49;99779.87;1684178;83;21373;-60
2021/10/14 09:39:02;;;;;;;14.90;11.45;;;;;;;12.05;84.77;99777.69;1717948;83;20988;-59
2021/10/14 09:41:26;;;;;;;25.05;16.82;;;;;;;12.18;84.74;99783.19;1704589;83;21894;-61
2021/10/14 09:43:55;;;;;;;24.12;19.12;;;;;;;12.06;84.59;99786.05;1679189;83;21001;-60
2021/10/14 09:46:40;;;;;;;31.48;22.25;;;;;;;12.04;83.75;99780.66;1688406;83;20956;-61
2021/10/14 09:49:29;;;;;;;33.65;22.30;;;;;;;12.15;83.86;99776.95;1661002;85;21052;-61
2021/10/14 09:51:57;;;;;;;26.55;19.00;;;;;;;11.95;83.80;99786.48;1660871;86;21050;-62
2021/10/14 09:54:24;;;;;;;;;;;;;;;12.44;82.91;99790.88;1670445;85;21464;-63
2021/10/14 09:56:50;;;;;;;20.35;14.98;;;;;;;12.00;83.63;99783.03;1683393;84;20423;-61
2021/10/14 09:59:17;;;;;;;15.28;12.07;;;;;;;11.88;85.95;99785.92;1690119;83;20978;-60
2021/10/14 10:01:44;;;;;;;20.03;9.97;;;;;;;12.47;84.14;99787.68;1688510;83;21033;-61
2021/10/14 10:04:11;;;;;;;25.05;15.40;;;;;;;12.46;81.30;99780.66;1688659;83;21005;-60
2021/10/14 10:06:38;;;;;;;24.25;17.30;;;;;;;11.99;81.63;99772.81;1689743;83;21761;-60
2021/10/14 10:09:14;;;;;;;11.85;9.08;;;;;;;11.87;81.31;99788.31;1685398;83;21070;-62
2021/10/14 10:11:48;;;;;;;10.05;7.90;;;;;;;11.44;82.35;99787.87;1688773;85;20921;-59
2021/10/14 10:14:15;;;;;;;17.07;11.18;;;;;;;10.95;83.80;99788.72;1685076;84;20981;-60
2021/10/14 10:16:57;;;;;;;12.47;9.25;;;;;;;10.43;86.21;99787.21;1711144;82;22110;-60
2021/10/14 10:19:45;;;;;;;13.48;10.63;;;;;;;10.48;87.85;99780.59;1701791;84;21460;-61
2021/10/14 10:22:14;;;;;;;25.00;15.37;;;;;;;10.36;88.83;99780.39;1688623;84;20866;-60
2021/10/14 10:24:40;;;;;;;20.48;15.93;;;;;;;11.19;86.29;99789.77;1662301;85;20858;-61
2021/10/14 10:27:08;;;;;;;26.93;20.48;;;;;;;11.01;84.49;99796.30;1665001;85;20921;-61
2021/10/14 10:29:37;;;;;;;15.68;14.07;;;;;;;10.78;84.31;99795.48;1687777;85;20888;-62
2021/10/14 10:32:11;;;;;;;34.30;30.90;;;;;;;10.71;85.06;99794.85;1736027;82;21161;-62
2021/10/14 10:34:47;;;;;;;34.00;26.02;;;;;;;10.67;86.31;99794.52;1736651;82;20863;-61
2021/10/14 10:40:16;;;;;;;16.65;9.60;;;;;;;11.61;80.34;99787.23;1734375;82;20919;-62
2021/10/14 10:42:55;;;;;;;28.27;11.03;;;;;;;11.96;77.62;99794.85;1736891;82;20985;-62
2021/10/14 10:45:24;;;;;;;108.57;34.40;;;;;;;12.67;71.09;99809.06;1723193;82;21749;-62
2021/10/14 10:47:58;;;;;;;39.92;18.12;;;;;;;12.54;70.79;99803.07;1719889;82;20851;-61
2021/10/14 10:50:33;;;;;;;26.90;13.70;;;;;;;12.02;73.44;99803.77;1721178;81;21049;-61
2021/10/14 10:53:09;;;;;;;22.60;12.33;;;;;;;11.38;74.91;99799.92;1709765;82;20847;-60
2021/10/14 10:55:46;;;;;;;76.37;36.48;;;;;;;10.89;79.06;99801.78;1725090;82;20961;-60
2021/10/14 10:58:16;;;;;;;28.10;19.02;;;;;;;10.58;79.57;99793.31;1739348;81;21823;-61
2021/10/14 11:00:44;;;;;;;17.77;11.65;;;;;;;10.45;78.15;99804.42;1735861;82;20863;-61
2021/10/14 11:03:17;;;;;;;22.35;14.28;;;;;;;10.38;81.30;99800.55;1739502;81;20899;-59
2021/10/14 11:05:58;;;;;;;35.25;16.40;;;;;;;10.62;82.92;99804.39;1739185;82;20875;-60
2021/10/14 11:08:31;;;;;;;20.95;12.78;;;;;;;10.88;82.88;99798.83;1738360;81;20907;-60
2021/10/14 11:11:05;;;;;;;19.07;13.43;;;;;;;11.10;80.84;99797.48;1735693;82;21085;-60
2021/10/14 11:13:33;;;;;;;22.73;13.72;;;;;;;11.57;76.57;99803.63;1739205;81;21295;-61
2021/10/14 11:16:00;;;;;;;15.75;10.58;;;;;;;11.20;77.68;99807.00;1739498;82;21394;-60
2021/10/14 11:18:27;;;;;;;13.15;9.10;;;;;;;10.91;80.41;99808.53;1731813;81;21006;-61
2021/10/14 11:21:00;;;;;;;23.22;13.65;;;;;;;10.64;83.02;99799.59;1665302;83;21013;-61